sensor_id;sensor_type;location;lat;lon;timestamp;temperature;humidity
64997;SHT31;51545;51.568;6.998;2022-11-20T00:00:23;-2.10;89.89
64997;SHT31;51545;51.568;6.998;2022-11-20T00:02:49;-2.08;90.33
64997;SHT31;51545;51.568;6.998;2022-11-20T00:05:14;-2.08;90.44
64997;SHT31;51545;51.568;6.998;2022-11-20T00:07:40;-2.07;90.41
64997;SHT31;51545;51.568;6.998;2022-11-20T00:10:06;-2.07;90.38
64997;SHT31;51545;51.568;6.998;2022-11-20T00:12:31;-2.07;90.40
64997;SHT31;51545;51.568;6.998;2022-11-20T00:14:57;-2.05;90.63
64997;SHT31;51545;51.568;6.998;2022-11-20T00:17:22;-2.05;90.72
64997;SHT31;51545;51.568;6.998;2022-11-20T00:19:48;-2.13;90.28
64997;SHT31;51545;51.568;6.998;2022-11-20T00:22:13;-2.13;90.32
64997;SHT31;51545;51.568;6.998;2022-11-20T00:24:39;-2.07;90.50
64997;SHT31;51545;51.568;6.998;2022-11-20T00:27:04;-2.04;90.53
64997;SHT31;51545;51.568;6.998;2022-11-20T00:29:30;-2.05;90.48
64997;SHT31;51545;51.568;6.998;2022-11-20T00:31:55;-2.15;90.17
64997;SHT31;51545;51.568;6.998;2022-11-20T00:34:20;-2.22;90.26
64997;SHT31;51545;51.568;6.998;2022-11-20T00:36:46;-2.17;90.53
64997;SHT31;51545;51.568;6.998;2022-11-20T00:39:11;-2.24;90.41
64997;SHT31;51545;51.568;6.998;2022-11-20T00:41:37;-2.30;90.35
64997;SHT31;51545;51.568;6.998;2022-11-20T00:44:02;-2.22;90.87
64997;SHT31;51545;51.568;6.998;2022-11-20T00:46:28;-2.25;90.64
64997;SHT31;51545;51.568;6.998;2022-11-20T00:48:53;-2.30;90.62
64997;SHT31;51545;51.568;6.998;2022-11-20T00:51:19;-2.34;90.48
64997;SHT31;51545;51.568;6.998;2022-11-20T00:53:46;-2.40;90.76
64997;SHT31;51545;51.568;6.998;2022-11-20T00:56:13;-2.26;91.19
64997;SHT31;51545;51.568;6.998;2022-11-20T00:58:41;-2.35;90.69
64997;SHT31;51545;51.568;6.998;2022-11-20T01:01:12;-2.38;90.89
64997;SHT31;51545;51.568;6.998;2022-11-20T01:03:40;-2.45;90.95
64997;SHT31;51545;51.568;6.998;2022-11-20T01:06:10;-2.41;91.40
64997;SHT31;51545;51.568;6.998;2022-11-20T01:08:37;-2.35;91.67
64997;SHT31;51545;51.568;6.998;2022-11-20T01:11:06;-2.34;91.63
64997;SHT31;51545;51.568;6.998;2022-11-20T01:13:34;-2.37;91.44
64997;SHT31;51545;51.568;6.998;2022-11-20T01:16:08;-2.45;91.20
64997;SHT31;51545;51.568;6.998;2022-11-20T01:18:38;-2.41;91.55
64997;SHT31;51545;51.568;6.998;2022-11-20T01:21:07;-2.35;91.52
64997;SHT31;51545;51.568;6.998;2022-11-20T01:23:36;-2.49;91.06
64997;SHT31;51545;51.568;6.998;2022-11-20T01:26:04;-2.56;91.08
64997;SHT31;51545;51.568;6.998;2022-11-20T01:28:31;-2.53;91.58
64997;SHT31;51545;51.568;6.998;2022-11-20T01:30:57;-2.52;91.37
64997;SHT31;51545;51.568;6.998;2022-11-20T01:33:23;-2.56;91.46
64997;SHT31;51545;51.568;6.998;2022-11-20T01:35:49;-2.53;91.67
64997;SHT31;51545;51.568;6.998;2022-11-20T01:38:15;-2.38;92.03
64997;SHT31;51545;51.568;6.998;2022-11-20T01:40:41;-2.34;91.98
64997;SHT31;51545;51.568;6.998;2022-11-20T01:43:14;-2.40;91.61
64997;SHT31;51545;51.568;6.998;2022-11-20T01:48:37;-2.60;91.40
64997;SHT31;51545;51.568;6.998;2022-11-20T01:51:12;-2.69;91.33
64997;SHT31;51545;51.568;6.998;2022-11-20T01:53:42;-2.76;91.57
64997;SHT31;51545;51.568;6.998;2022-11-20T01:56:09;-2.77;91.87
64997;SHT31;51545;51.568;6.998;2022-11-20T01:58:38;-2.81;91.88
64997;SHT31;51545;51.568;6.998;2022-11-20T02:01:09;-2.94;91.88
64997;SHT31;51545;51.568;6.998;2022-11-20T02:03:34;-2.98;92.11
64997;SHT31;51545;51.568;6.998;2022-11-20T02:06:03;-2.88;92.59
64997;SHT31;51545;51.568;6.998;2022-11-20T02:08:37;-2.84;92.48
64997;SHT31;51545;51.568;6.998;2022-11-20T02:11:03;-2.88;92.42
64997;SHT31;51545;51.568;6.998;2022-11-20T02:13:29;-2.79;92.63
64997;SHT31;51545;51.568;6.998;2022-11-20T02:16:14;-2.91;92.17
64997;SHT31;51545;51.568;6.998;2022-11-20T02:18:42;-2.98;92.25
64997;SHT31;51545;51.568;6.998;2022-11-20T02:21:15;-2.88;92.76
64997;SHT31;51545;51.568;6.998;2022-11-20T02:24:15;-2.96;92.43
64997;SHT31;51545;51.568;6.998;2022-11-20T02:26:49;-3.08;92.19
64997;SHT31;51545;51.568;6.998;2022-11-20T02:29:16;-2.96;92.85
64997;SHT31;51545;51.568;6.998;2022-11-20T02:31:48;-2.91;92.73
64997;SHT31;51545;51.568;6.998;2022-11-20T02:34:13;-2.91;92.46
64997;SHT31;51545;51.568;6.998;2022-11-20T02:36:39;-2.93;92.51
64997;SHT31;51545;51.568;6.998;2022-11-20T02:39:06;-2.98;92.34
64997;SHT31;51545;51.568;6.998;2022-11-20T02:41:33;-3.03;92.47
64997;SHT31;51545;51.568;6.998;2022-11-20T02:44:00;-2.94;92.82
64997;SHT31;51545;51.568;6.998;2022-11-20T02:46:27;-2.84;93.02
64997;SHT31;51545;51.568;6.998;2022-11-20T02:48:52;-2.96;92.55
64997;SHT31;51545;51.568;6.998;2022-11-20T02:51:20;-3.00;92.58
64997;SHT31;51545;51.568;6.998;2022-11-20T02:53:47;-3.04;92.65
64997;SHT31;51545;51.568;6.998;2022-11-20T02:56:12;-3.01;92.75
64997;SHT31;51545;51.568;6.998;2022-11-20T02:58:38;-2.97;93.09
64997;SHT31;51545;51.568;6.998;2022-11-20T03:01:03;-2.84;93.32
64997;SHT31;51545;51.568;6.998;2022-11-20T03:03:29;-2.79;93.22
64997;SHT31;51545;51.568;6.998;2022-11-20T03:05:54;-2.66;93.48
64997;SHT31;51545;51.568;6.998;2022-11-20T03:08:19;-2.62;93.37
64997;SHT31;51545;51.568;6.998;2022-11-20T03:10:45;-2.75;92.85
64997;SHT31;51545;51.568;6.998;2022-11-20T03:13:11;-2.75;92.98
64997;SHT31;51545;51.568;6.998;2022-11-20T03:15:37;-2.66;93.28
64997;SHT31;51545;51.568;6.998;2022-11-20T03:18:03;-2.62;93.35
64997;SHT31;51545;51.568;6.998;2022-11-20T03:20:29;-2.52;93.41
64997;SHT31;51545;51.568;6.998;2022-11-20T03:22:55;-2.52;93.26
64997;SHT31;51545;51.568;6.998;2022-11-20T03:25:21;-2.46;93.35
64997;SHT31;51545;51.568;6.998;2022-11-20T03:27:48;-2.55;93.02
64997;SHT31;51545;51.568;6.998;2022-11-20T03:30:13;-2.48;93.26
64997;SHT31;51545;51.568;6.998;2022-11-20T03:32:39;-2.38;93.49
64997;SHT31;51545;51.568;6.998;2022-11-20T03:35:05;-2.35;93.38
64997;SHT31;51545;51.568;6.998;2022-11-20T03:37:31;-2.35;93.34
64997;SHT31;51545;51.568;6.998;2022-11-20T03:39:57;-2.31;93.52
64997;SHT31;51545;51.568;6.998;2022-11-20T03:42:22;-2.19;93.61
64997;SHT31;51545;51.568;6.998;2022-11-20T03:45:06;-2.18;93.61
64997;SHT31;51545;51.568;6.998;2022-11-20T03:47:32;-2.04;93.83
64997;SHT31;51545;51.568;6.998;2022-11-20T03:49:58;-2.08;93.51
64997;SHT31;51545;51.568;6.998;2022-11-20T03:52:23;-2.10;93.57
64997;SHT31;51545;51.568;6.998;2022-11-20T03:54:48;-2.00;93.72
64997;SHT31;51545;51.568;6.998;2022-11-20T03:57:14;-1.97;93.71
64997;SHT31;51545;51.568;6.998;2022-11-20T03:59:39;-1.94;93.73
64997;SHT31;51545;51.568;6.998;2022-11-20T04:02:05;-1.96;93.66
64997;SHT31;51545;51.568;6.998;2022-11-20T04:04:31;-1.93;93.78
64997;SHT31;51545;51.568;6.998;2022-11-20T04:06:56;-1.87;93.94
64997;SHT31;51545;51.568;6.998;2022-11-20T04:09:22;-1.85;93.85
64997;SHT31;51545;51.568;6.998;2022-11-20T04:11:47;-1.89;93.65
64997;SHT31;51545;51.568;6.998;2022-11-20T04:14:13;-1.87;93.73
64997;SHT31;51545;51.568;6.998;2022-11-20T04:16:40;-1.90;93.63
64997;SHT31;51545;51.568;6.998;2022-11-20T04:19:09;-1.98;93.67
64997;SHT31;51545;51.568;6.998;2022-11-20T04:21:36;-2.00;93.82
64997;SHT31;51545;51.568;6.998;2022-11-20T04:24:02;-2.00;93.86
64997;SHT31;51545;51.568;6.998;2022-11-20T04:26:28;-1.97;94.09
64997;SHT31;51545;51.568;6.998;2022-11-20T04:28:54;-1.96;94.00
64997;SHT31;51545;51.568;6.998;2022-11-20T04:31:21;-1.97;93.90
64997;SHT31;51545;51.568;6.998;2022-11-20T04:33:48;-1.98;93.81
64997;SHT31;51545;51.568;6.998;2022-11-20T04:36:17;-1.96;93.83
64997;SHT31;51545;51.568;6.998;2022-11-20T04:38:44;-1.91;93.93
64997;SHT31;51545;51.568;6.998;2022-11-20T04:41:17;-1.94;93.84
64997;SHT31;51545;51.568;6.998;2022-11-20T04:43:46;-1.89;94.08
64997;SHT31;51545;51.568;6.998;2022-11-20T04:46:13;-1.83;94.18
64997;SHT31;51545;51.568;6.998;2022-11-20T04:48:39;-1.89;93.96
64997;SHT31;51545;51.568;6.998;2022-11-20T04:51:04;-1.82;94.20
64997;SHT31;51545;51.568;6.998;2022-11-20T04:53:30;-1.89;93.97
64997;SHT31;51545;51.568;6.998;2022-11-20T04:55:59;-1.85;94.14
64997;SHT31;51545;51.568;6.998;2022-11-20T04:58:26;-1.77;94.16
64997;SHT31;51545;51.568;6.998;2022-11-20T05:00:51;-1.72;94.19
64997;SHT31;51545;51.568;6.998;2022-11-20T05:03:17;-1.85;93.83
64997;SHT31;51545;51.568;6.998;2022-11-20T05:05:42;-1.89;93.98
64997;SHT31;51545;51.568;6.998;2022-11-20T05:08:08;-1.90;93.97
64997;SHT31;51545;51.568;6.998;2022-11-20T05:10:33;-1.89;94.12
64997;SHT31;51545;51.568;6.998;2022-11-20T05:12:59;-1.91;93.98
64997;SHT31;51545;51.568;6.998;2022-11-20T05:15:24;-1.97;94.15
64997;SHT31;51545;51.568;6.998;2022-11-20T05:17:50;-1.90;94.34
64997;SHT31;51545;51.568;6.998;2022-11-20T05:20:17;-1.87;94.42
64997;SHT31;51545;51.568;6.998;2022-11-20T05:22:43;-1.89;94.42
64997;SHT31;51545;51.568;6.998;2022-11-20T05:25:09;-1.85;94.56
64997;SHT31;51545;51.568;6.998;2022-11-20T05:27:34;-1.90;94.40
64997;SHT31;51545;51.568;6.998;2022-11-20T05:30:00;-1.86;94.53
64997;SHT31;51545;51.568;6.998;2022-11-20T05:32:25;-1.96;94.32
64997;SHT31;51545;51.568;6.998;2022-11-20T05:34:51;-1.97;94.37
64997;SHT31;51545;51.568;6.998;2022-11-20T05:37:17;-1.98;94.38
64997;SHT31;51545;51.568;6.998;2022-11-20T05:39:43;-1.86;94.71
64997;SHT31;51545;51.568;6.998;2022-11-20T05:42:08;-1.86;94.58
64997;SHT31;51545;51.568;6.998;2022-11-20T05:44:52;-1.91;94.43
64997;SHT31;51545;51.568;6.998;2022-11-20T05:47:18;-1.89;94.60
64997;SHT31;51545;51.568;6.998;2022-11-20T05:49:43;-1.86;94.64
64997;SHT31;51545;51.568;6.998;2022-11-20T05:52:08;-1.82;94.57
64997;SHT31;51545;51.568;6.998;2022-11-20T05:54:34;-1.87;94.42
64997;SHT31;51545;51.568;6.998;2022-11-20T05:56:59;-1.87;94.44
64997;SHT31;51545;51.568;6.998;2022-11-20T05:59:25;-1.87;94.41
64997;SHT31;51545;51.568;6.998;2022-11-20T06:01:50;-1.82;94.55
64997;SHT31;51545;51.568;6.998;2022-11-20T06:04:16;-1.77;94.66
64997;SHT31;51545;51.568;6.998;2022-11-20T06:06:41;-1.77;94.56
64997;SHT31;51545;51.568;6.998;2022-11-20T06:09:07;-1.69;94.66
64997;SHT31;51545;51.568;6.998;2022-11-20T06:11:32;-1.66;94.50
64997;SHT31;51545;51.568;6.998;2022-11-20T06:13:58;-1.63;94.39
64997;SHT31;51545;51.568;6.998;2022-11-20T06:16:23;-1.73;94.08
64997;SHT31;51545;51.568;6.998;2022-11-20T06:18:49;-1.73;94.24
64997;SHT31;51545;51.568;6.998;2022-11-20T06:21:16;-1.77;94.04
64997;SHT31;51545;51.568;6.998;2022-11-20T06:23:44;-1.82;94.20
64997;SHT31;51545;51.568;6.998;2022-11-20T06:26:11;-1.86;94.18
64997;SHT31;51545;51.568;6.998;2022-11-20T06:28:40;-1.91;94.07
64997;SHT31;51545;51.568;6.998;2022-11-20T06:31:07;-1.94;94.18
64997;SHT31;51545;51.568;6.998;2022-11-20T06:33:36;-1.93;94.22
64997;SHT31;51545;51.568;6.998;2022-11-20T06:36:03;-2.01;94.02
64997;SHT31;51545;51.568;6.998;2022-11-20T06:38:29;-2.08;94.04
64997;SHT31;51545;51.568;6.998;2022-11-20T06:40:55;-2.15;94.17
64997;SHT31;51545;51.568;6.998;2022-11-20T06:43:20;-2.15;94.31
64997;SHT31;51545;51.568;6.998;2022-11-20T06:45:50;-2.18;94.28
64997;SHT31;51545;51.568;6.998;2022-11-20T06:48:19;-2.14;94.47
64997;SHT31;51545;51.568;6.998;2022-11-20T06:50:45;-2.08;94.55
64997;SHT31;51545;51.568;6.998;2022-11-20T06:53:11;-2.18;94.32
64997;SHT31;51545;51.568;6.998;2022-11-20T06:55:36;-2.21;94.19
64997;SHT31;51545;51.568;6.998;2022-11-20T06:58:02;-2.30;94.10
64997;SHT31;51545;51.568;6.998;2022-11-20T07:00:27;-2.26;94.45
64997;SHT31;51545;51.568;6.998;2022-11-20T07:02:52;-2.22;94.41
64997;SHT31;51545;51.568;6.998;2022-11-20T07:05:18;-2.25;94.45
64997;SHT31;51545;51.568;6.998;2022-11-20T07:07:43;-2.30;94.26
64997;SHT31;51545;51.568;6.998;2022-11-20T07:10:09;-2.40;94.27
64997;SHT31;51545;51.568;6.998;2022-11-20T07:12:35;-2.49;94.12
64997;SHT31;51545;51.568;6.998;2022-11-20T07:15:00;-2.49;94.22
64997;SHT31;51545;51.568;6.998;2022-11-20T07:17:26;-2.51;94.34
64997;SHT31;51545;51.568;6.998;2022-11-20T07:19:51;-2.55;94.44
64997;SHT31;51545;51.568;6.998;2022-11-20T07:22:17;-2.51;94.67
64997;SHT31;51545;51.568;6.998;2022-11-20T07:24:42;-2.41;94.99
64997;SHT31;51545;51.568;6.998;2022-11-20T07:27:07;-2.37;95.06
64997;SHT31;51545;51.568;6.998;2022-11-20T07:29:33;-2.37;94.97
64997;SHT31;51545;51.568;6.998;2022-11-20T07:31:58;-2.26;95.11
64997;SHT31;51545;51.568;6.998;2022-11-20T07:34:24;-2.14;95.24
64997;SHT31;51545;51.568;6.998;2022-11-20T07:36:49;-2.08;95.13
64997;SHT31;51545;51.568;6.998;2022-11-20T07:39:15;-2.13;94.84
64997;SHT31;51545;51.568;6.998;2022-11-20T07:41:40;-2.25;94.45
64997;SHT31;51545;51.568;6.998;2022-11-20T07:44:06;-2.17;94.64
64997;SHT31;51545;51.568;6.998;2022-11-20T07:46:31;-2.22;94.44
64997;SHT31;51545;51.568;6.998;2022-11-20T07:48:57;-2.22;94.41
64997;SHT31;51545;51.568;6.998;2022-11-20T07:51:22;-2.17;94.59
64997;SHT31;51545;51.568;6.998;2022-11-20T07:53:50;-2.22;94.43
64997;SHT31;51545;51.568;6.998;2022-11-20T07:56:16;-2.18;94.45
64997;SHT31;51545;51.568;6.998;2022-11-20T07:58:42;-2.17;94.46
64997;SHT31;51545;51.568;6.998;2022-11-20T08:01:07;-2.00;94.79
64997;SHT31;51545;51.568;6.998;2022-11-20T08:03:33;-1.83;94.82
64997;SHT31;51545;51.568;6.998;2022-11-20T08:05:59;-1.86;94.55
64997;SHT31;51545;51.568;6.998;2022-11-20T08:08:26;-1.76;94.68
64997;SHT31;51545;51.568;6.998;2022-11-20T08:10:52;-1.66;94.78
64997;SHT31;51545;51.568;6.998;2022-11-20T08:13:38;-1.70;94.39
64997;SHT31;51545;51.568;6.998;2022-11-20T08:16:22;-1.66;94.42
64997;SHT31;51545;51.568;6.998;2022-11-20T08:18:47;-1.60;94.33
64997;SHT31;51545;51.568;6.998;2022-11-20T08:21:16;-1.56;94.34
64997;SHT31;51545;51.568;6.998;2022-11-20T08:23:42;-1.52;94.27
64997;SHT31;51545;51.568;6.998;2022-11-20T08:26:09;-1.48;94.20
64997;SHT31;51545;51.568;6.998;2022-11-20T08:28:34;-1.35;94.51
64997;SHT31;51545;51.568;6.998;2022-11-20T08:31:00;-1.25;94.34
64997;SHT31;51545;51.568;6.998;2022-11-20T08:33:26;-1.30;94.23
64997;SHT31;51545;51.568;6.998;2022-11-20T08:35:52;-1.11;94.53
64997;SHT31;51545;51.568;6.998;2022-11-20T08:38:17;-1.01;94.49
64997;SHT31;51545;51.568;6.998;2022-11-20T08:40:43;-0.93;94.40
64997;SHT31;51545;51.568;6.998;2022-11-20T08:43:31;-0.82;94.35
64997;SHT31;51545;51.568;6.998;2022-11-20T08:45:56;-0.69;94.26
64997;SHT31;51545;51.568;6.998;2022-11-20T08:48:22;-0.61;94.09
64997;SHT31;51545;51.568;6.998;2022-11-20T08:50:47;-0.48;94.07
64997;SHT31;51545;51.568;6.998;2022-11-20T08:53:13;-0.45;93.92
64997;SHT31;51545;51.568;6.998;2022-11-20T08:55:38;-0.38;93.86
64997;SHT31;51545;51.568;6.998;2022-11-20T08:58:04;-0.31;93.74
64997;SHT31;51545;51.568;6.998;2022-11-20T09:00:30;-0.34;93.49
64997;SHT31;51545;51.568;6.998;2022-11-20T09:02:57;-0.23;93.75
64997;SHT31;51545;51.568;6.998;2022-11-20T09:05:23;-0.10;93.69
64997;SHT31;51545;51.568;6.998;2022-11-20T09:07:49;-0.07;93.60
64997;SHT31;51545;51.568;6.998;2022-11-20T09:10:14;0.11;93.15
64997;SHT31;51545;51.568;6.998;2022-11-20T09:12:40;0.19;93.13
64997;SHT31;51545;51.568;6.998;2022-11-20T09:15:05;0.25;92.94
64997;SHT31;51545;51.568;6.998;2022-11-20T09:17:31;0.28;92.97
64997;SHT31;51545;51.568;6.998;2022-11-20T09:19:56;0.38;92.89
64997;SHT31;51545;51.568;6.998;2022-11-20T09:22:22;0.48;92.85
64997;SHT31;51545;51.568;6.998;2022-11-20T09:24:47;0.60;92.86
64997;SHT31;51545;51.568;6.998;2022-11-20T09:27:13;0.72;92.67
64997;SHT31;51545;51.568;6.998;2022-11-20T09:29:39;0.87;92.57
64997;SHT31;51545;51.568;6.998;2022-11-20T09:32:04;0.88;92.27
64997;SHT31;51545;51.568;6.998;2022-11-20T09:34:31;0.95;92.20
64997;SHT31;51545;51.568;6.998;2022-11-20T09:36:56;1.11;92.31
64997;SHT31;51545;51.568;6.998;2022-11-20T09:39:22;1.21;91.88
64997;SHT31;51545;51.568;6.998;2022-11-20T09:56:21;2.01;91.13
64997;SHT31;51545;51.568;6.998;2022-11-20T09:58:51;2.05;90.15
64997;SHT31;51545;51.568;6.998;2022-11-20T10:01:20;2.15;90.36
64997;SHT31;51545;51.568;6.998;2022-11-20T10:06:39;2.19;90.22
64997;SHT31;51545;51.568;6.998;2022-11-20T10:25:24;3.22;87.21
64997;SHT31;51545;51.568;6.998;2022-11-20T10:30:41;3.77;86.16
64997;SHT31;51545;51.568;6.998;2022-11-20T10:38:25;3.70;85.02
64997;SHT31;51545;51.568;6.998;2022-11-20T10:41:00;3.81;85.17
64997;SHT31;51545;51.568;6.998;2022-11-20T10:44:02;3.74;84.42
64997;SHT31;51545;51.568;6.998;2022-11-20T10:46:35;4.02;84.99
64997;SHT31;51545;51.568;6.998;2022-11-20T10:49:39;4.27;84.37
64997;SHT31;51545;51.568;6.998;2022-11-20T11:00:36;4.40;83.57
64997;SHT31;51545;51.568;6.998;2022-11-20T11:03:01;4.33;83.06
64997;SHT31;51545;51.568;6.998;2022-11-20T11:05:48;4.46;83.51
64997;SHT31;51545;51.568;6.998;2022-11-20T11:08:19;4.67;83.70
64997;SHT31;51545;51.568;6.998;2022-11-20T11:10:49;4.61;83.25
64997;SHT31;51545;51.568;6.998;2022-11-20T11:13:22;4.46;82.83
64997;SHT31;51545;51.568;6.998;2022-11-20T11:15:52;4.44;83.38
64997;SHT31;51545;51.568;6.998;2022-11-20T11:18:28;4.44;83.19
64997;SHT31;51545;51.568;6.998;2022-11-20T11:21:00;4.30;83.03
64997;SHT31;51545;51.568;6.998;2022-11-20T11:23:34;4.43;84.16
64997;SHT31;51545;51.568;6.998;2022-11-20T11:26:02;4.51;83.80
64997;SHT31;51545;51.568;6.998;2022-11-20T11:28:29;4.61;83.84
64997;SHT31;51545;51.568;6.998;2022-11-20T11:30:55;4.67;83.92
64997;SHT31;51545;51.568;6.998;2022-11-20T11:33:21;4.60;83.38
64997;SHT31;51545;51.568;6.998;2022-11-20T11:35:49;4.72;83.97
64997;SHT31;51545;51.568;6.998;2022-11-20T11:38:36;4.68;83.19
64997;SHT31;51545;51.568;6.998;2022-11-20T11:41:05;4.95;83.33
64997;SHT31;51545;51.568;6.998;2022-11-20T11:43:35;5.19;83.18
64997;SHT31;51545;51.568;6.998;2022-11-20T11:46:27;5.51;82.57
64997;SHT31;51545;51.568;6.998;2022-11-20T11:49:02;5.24;80.67
64997;SHT31;51545;51.568;6.998;2022-11-20T11:51:50;5.19;81.55
64997;SHT31;51545;51.568;6.998;2022-11-20T12:00:13;4.62;82.99
64997;SHT31;51545;51.568;6.998;2022-11-20T12:05:17;4.67;84.14
64997;SHT31;51545;51.568;6.998;2022-11-20T12:07:50;4.60;83.42
64997;SHT31;51545;51.568;6.998;2022-11-20T12:10:23;4.68;83.50
64997;SHT31;51545;51.568;6.998;2022-11-20T12:13:02;4.72;83.95
64997;SHT31;51545;51.568;6.998;2022-11-20T12:15:46;4.78;84.10
64997;SHT31;51545;51.568;6.998;2022-11-20T12:18:17;4.77;84.03
64997;SHT31;51545;51.568;6.998;2022-11-20T12:20:53;4.81;84.01
64997;SHT31;51545;51.568;6.998;2022-11-20T12:23:30;4.78;84.28
64997;SHT31;51545;51.568;6.998;2022-11-20T12:26:01;4.65;84.00
64997;SHT31;51545;51.568;6.998;2022-11-20T12:31:14;4.37;84.46
64997;SHT31;51545;51.568;6.998;2022-11-20T12:36:48;4.27;85.18
64997;SHT31;51545;51.568;6.998;2022-11-20T12:39:28;4.27;85.63
64997;SHT31;51545;51.568;6.998;2022-11-20T12:45:49;4.13;85.75
64997;SHT31;51545;51.568;6.998;2022-11-20T12:48:31;4.15;85.73
64997;SHT31;51545;51.568;6.998;2022-11-20T12:56:50;4.17;86.28
64997;SHT31;51545;51.568;6.998;2022-11-20T13:02:38;4.12;86.09
64997;SHT31;51545;51.568;6.998;2022-11-20T13:05:18;4.12;86.38
64997;SHT31;51545;51.568;6.998;2022-11-20T13:07:45;4.09;86.29
64997;SHT31;51545;51.568;6.998;2022-11-20T13:10:18;4.17;86.73
64997;SHT31;51545;51.568;6.998;2022-11-20T13:13:00;4.19;86.63
64997;SHT31;51545;51.568;6.998;2022-11-20T13:15:42;4.16;86.15
64997;SHT31;51545;51.568;6.998;2022-11-20T13:18:18;4.27;86.79
64997;SHT31;51545;51.568;6.998;2022-11-20T13:20:44;4.32;86.74
64997;SHT31;51545;51.568;6.998;2022-11-20T13:23:10;4.32;86.39
64997;SHT31;51545;51.568;6.998;2022-11-20T13:25:39;4.36;86.72
64997;SHT31;51545;51.568;6.998;2022-11-20T13:30:34;4.30;86.45
64997;SHT31;51545;51.568;6.998;2022-11-20T13:36:04;4.36;86.56
64997;SHT31;51545;51.568;6.998;2022-11-20T13:38:43;4.34;85.89
64997;SHT31;51545;51.568;6.998;2022-11-20T13:41:22;4.36;85.85
64997;SHT31;51545;51.568;6.998;2022-11-20T13:46:50;4.41;85.84
64997;SHT31;51545;51.568;6.998;2022-11-20T13:49:25;4.43;86.17
64997;SHT31;51545;51.568;6.998;2022-11-20T14:00:58;4.43;84.75
64997;SHT31;51545;51.568;6.998;2022-11-20T14:03:47;4.46;85.51
64997;SHT31;51545;51.568;6.998;2022-11-20T14:06:18;4.46;86.06
64997;SHT31;51545;51.568;6.998;2022-11-20T14:09:26;4.44;85.78
64997;SHT31;51545;51.568;6.998;2022-11-20T14:11:54;4.51;85.90
64997;SHT31;51545;51.568;6.998;2022-11-20T14:14:21;4.50;86.43
64997;SHT31;51545;51.568;6.998;2022-11-20T14:16:49;4.44;86.55
64997;SHT31;51545;51.568;6.998;2022-11-20T14:19:28;4.44;87.16
64997;SHT31;51545;51.568;6.998;2022-11-20T14:22:07;4.46;87.37
64997;SHT31;51545;51.568;6.998;2022-11-20T14:24:33;4.46;87.70
64997;SHT31;51545;51.568;6.998;2022-11-20T14:26:59;4.36;87.52
64997;SHT31;51545;51.568;6.998;2022-11-20T14:29:35;4.33;88.00
64997;SHT31;51545;51.568;6.998;2022-11-20T14:32:02;4.37;88.54
64997;SHT31;51545;51.568;6.998;2022-11-20T14:34:30;4.29;88.99
64997;SHT31;51545;51.568;6.998;2022-11-20T14:36:58;4.27;89.04
64997;SHT31;51545;51.568;6.998;2022-11-20T14:39:29;4.22;89.62
64997;SHT31;51545;51.568;6.998;2022-11-20T14:41:58;4.17;89.89
64997;SHT31;51545;51.568;6.998;2022-11-20T14:44:26;4.13;90.26
64997;SHT31;51545;51.568;6.998;2022-11-20T14:46:54;4.17;90.53
64997;SHT31;51545;51.568;6.998;2022-11-20T14:49:20;4.13;90.42
64997;SHT31;51545;51.568;6.998;2022-11-20T14:51:46;4.15;90.72
64997;SHT31;51545;51.568;6.998;2022-11-20T14:54:12;4.12;90.83
64997;SHT31;51545;51.568;6.998;2022-11-20T14:56:40;4.03;90.67
64997;SHT31;51545;51.568;6.998;2022-11-20T14:59:05;4.10;91.12
64997;SHT31;51545;51.568;6.998;2022-11-20T15:01:33;4.02;91.25
64997;SHT31;51545;51.568;6.998;2022-11-20T15:04:04;3.99;91.17
64997;SHT31;51545;51.568;6.998;2022-11-20T15:06:31;4.02;91.08
64997;SHT31;51545;51.568;6.998;2022-11-20T15:08:57;4.01;90.73
64997;SHT31;51545;51.568;6.998;2022-11-20T15:11:28;3.96;90.69
64997;SHT31;51545;51.568;6.998;2022-11-20T15:13:55;3.99;90.96
64997;SHT31;51545;51.568;6.998;2022-11-20T15:16:22;3.92;91.03
64997;SHT31;51545;51.568;6.998;2022-11-20T15:18:49;3.85;91.42
64997;SHT31;51545;51.568;6.998;2022-11-20T15:21:16;3.78;91.70
64997;SHT31;51545;51.568;6.998;2022-11-20T15:23:43;3.66;92.31
64997;SHT31;51545;51.568;6.998;2022-11-20T15:26:09;3.61;92.43
64997;SHT31;51545;51.568;6.998;2022-11-20T15:28:40;3.58;92.55
64997;SHT31;51545;51.568;6.998;2022-11-20T15:31:12;3.60;92.97
64997;SHT31;51545;51.568;6.998;2022-11-20T15:33:38;3.56;93.39
64997;SHT31;51545;51.568;6.998;2022-11-20T15:36:03;3.56;93.15
64997;SHT31;51545;51.568;6.998;2022-11-20T15:38:29;3.49;93.33
64997;SHT31;51545;51.568;6.998;2022-11-20T15:40:54;3.44;93.19
64997;SHT31;51545;51.568;6.998;2022-11-20T15:43:20;3.44;93.59
64997;SHT31;51545;51.568;6.998;2022-11-20T15:45:49;3.44;93.65
64997;SHT31;51545;51.568;6.998;2022-11-20T15:48:21;3.43;93.62
64997;SHT31;51545;51.568;6.998;2022-11-20T15:50:57;3.42;93.62
64997;SHT31;51545;51.568;6.998;2022-11-20T15:53:24;3.46;94.03
64997;SHT31;51545;51.568;6.998;2022-11-20T15:55:50;3.47;94.18
64997;SHT31;51545;51.568;6.998;2022-11-20T15:58:15;3.53;94.21
64997;SHT31;51545;51.568;6.998;2022-11-20T16:00:42;3.46;93.94
64997;SHT31;51545;51.568;6.998;2022-11-20T16:03:14;3.38;93.96
64997;SHT31;51545;51.568;6.998;2022-11-20T16:05:41;3.39;94.23
64997;SHT31;51545;51.568;6.998;2022-11-20T16:08:07;3.44;94.36
64997;SHT31;51545;51.568;6.998;2022-11-20T16:10:33;3.40;94.29
64997;SHT31;51545;51.568;6.998;2022-11-20T16:12:58;3.44;94.57
64997;SHT31;51545;51.568;6.998;2022-11-20T16:15:50;3.43;94.77
64997;SHT31;51545;51.568;6.998;2022-11-20T16:18:18;3.43;94.72
64997;SHT31;51545;51.568;6.998;2022-11-20T16:20:46;3.40;94.83
64997;SHT31;51545;51.568;6.998;2022-11-20T16:23:13;3.32;94.92
64997;SHT31;51545;51.568;6.998;2022-11-20T16:25:39;3.32;95.31
64997;SHT31;51545;51.568;6.998;2022-11-20T16:28:04;3.46;95.42
64997;SHT31;51545;51.568;6.998;2022-11-20T16:30:30;3.39;95.52
64997;SHT31;51545;51.568;6.998;2022-11-20T16:32:57;3.33;96.02
64997;SHT31;51545;51.568;6.998;2022-11-20T16:35:25;3.27;96.08
64997;SHT31;51545;51.568;6.998;2022-11-20T16:37:52;3.27;96.08
64997;SHT31;51545;51.568;6.998;2022-11-20T16:40:17;3.35;96.33
64997;SHT31;51545;51.568;6.998;2022-11-20T16:42:43;3.39;96.49
64997;SHT31;51545;51.568;6.998;2022-11-20T16:45:08;3.38;96.50
64997;SHT31;51545;51.568;6.998;2022-11-20T16:47:34;3.36;96.58
64997;SHT31;51545;51.568;6.998;2022-11-20T16:50:00;3.29;96.82
64997;SHT31;51545;51.568;6.998;2022-11-20T16:52:27;3.27;97.08
64997;SHT31;51545;51.568;6.998;2022-11-20T16:54:52;3.26;97.34
64997;SHT31;51545;51.568;6.998;2022-11-20T16:57:18;3.32;97.46
64997;SHT31;51545;51.568;6.998;2022-11-20T16:59:43;3.29;97.69
64997;SHT31;51545;51.568;6.998;2022-11-20T17:02:09;3.33;97.68
64997;SHT31;51545;51.568;6.998;2022-11-20T17:04:36;3.35;97.67
64997;SHT31;51545;51.568;6.998;2022-11-20T17:07:01;3.30;97.80
64997;SHT31;51545;51.568;6.998;2022-11-20T17:09:27;3.30;98.02
64997;SHT31;51545;51.568;6.998;2022-11-20T17:11:53;3.36;98.21
64997;SHT31;51545;51.568;6.998;2022-11-20T17:14:18;3.42;98.23
64997;SHT31;51545;51.568;6.998;2022-11-20T17:16:44;3.46;98.34
64997;SHT31;51545;51.568;6.998;2022-11-20T17:19:09;3.51;98.33
64997;SHT31;51545;51.568;6.998;2022-11-20T17:21:35;3.56;98.43